createdAt,value
2023-05-11T00:03:34.120Z,58.58
2023-05-11T00:08:36.304Z,58.59
2023-05-11T00:13:38.165Z,58.50
2023-05-11T00:18:40.128Z,58.62
2023-05-11T00:23:42.027Z,58.75
2023-05-11T00:28:45.431Z,58.71
2023-05-11T00:33:47.395Z,58.73
2023-05-11T00:38:50.211Z,58.87
2023-05-11T00:43:52.134Z,58.86
2023-05-11T00:48:54.403Z,58.91
2023-05-11T00:53:56.336Z,58.90
2023-05-11T00:58:58.451Z,58.93
2023-05-11T01:04:00.546Z,58.89
2023-05-11T01:09:29.046Z,59.16
2023-05-11T01:14:37.631Z,58.95
2023-05-11T01:19:48.798Z,59.06
2023-05-11T01:25:14.051Z,59.18
2023-05-11T01:30:41.906Z,59.05
2023-05-11T01:35:51.006Z,58.97
2023-05-11T01:40:57.594Z,59.17
2023-05-11T01:46:02.266Z,59.11
2023-05-11T01:51:05.879Z,58.95
2023-05-11T01:56:09.537Z,59.16
2023-05-11T02:01:12.706Z,59.37
2023-05-11T02:06:18.117Z,59.48
2023-05-11T02:11:23.954Z,59.52
2023-05-11T02:16:30.111Z,59.71
2023-05-11T02:21:33.127Z,59.49
2023-05-11T02:26:35.329Z,59.42
2023-05-11T02:31:44.191Z,59.59
2023-05-11T02:36:53.669Z,59.36
2023-05-11T02:42:01.088Z,59.31
2023-05-11T02:47:06.567Z,59.27
2023-05-11T02:52:11.662Z,59.31
2023-05-11T02:57:19.746Z,59.34
2023-05-11T03:02:22.378Z,59.34
2023-05-11T03:07:24.442Z,59.48
2023-05-11T03:12:31.585Z,59.68
2023-05-11T03:17:36.055Z,59.82
2023-05-11T03:22:39.539Z,59.92
2023-05-11T03:27:44.048Z,60.02
2023-05-11T03:32:46.567Z,60.06
2023-05-11T03:37:51.582Z,60.28
2023-05-11T03:42:55.733Z,60.40
2023-05-11T03:48:00.472Z,60.41
2023-05-11T03:53:03.476Z,60.25
2023-05-11T03:58:09.937Z,60.51
2023-05-11T04:03:12.654Z,60.51
2023-05-11T04:08:15.484Z,60.65
2023-05-11T04:13:17.397Z,60.58
2023-05-11T04:18:19.658Z,60.66
2023-05-11T04:23:21.926Z,60.75
2023-05-11T04:28:27.667Z,60.81
2023-05-11T04:33:30.596Z,60.92
2023-05-11T04:38:34.088Z,61.08
2023-05-11T04:43:36.576Z,60.79
2023-05-11T04:48:38.436Z,60.69
2023-05-11T04:53:40.681Z,60.83
2023-05-11T04:58:42.909Z,60.90
2023-05-11T05:03:48.655Z,60.76
2023-05-11T05:08:50.822Z,60.90
2023-05-11T05:13:54.945Z,60.62
2023-05-11T05:18:57.450Z,60.85
2023-05-11T05:23:59.825Z,60.71
2023-05-11T05:29:01.749Z,60.42
2023-05-11T05:34:04.723Z,60.36
2023-05-11T05:39:12.029Z,60.49
2023-05-11T05:44:15.165Z,60.43
2023-05-11T05:49:17.710Z,60.12
2023-05-11T05:54:19.621Z,60.02
2023-05-11T05:59:23.590Z,60.09
2023-05-11T06:04:30.509Z,60.09
2023-05-11T06:09:32.424Z,60.01
2023-05-11T06:14:34.356Z,60.01
2023-05-11T06:19:38.850Z,59.83
2023-05-11T06:24:40.953Z,59.64
2023-05-11T06:29:44.644Z,59.59
2023-05-11T06:34:46.943Z,59.59
2023-05-11T06:39:49.809Z,59.21
2023-05-11T06:44:52.014Z,58.94
2023-05-11T06:49:54.428Z,58.93
2023-05-11T06:54:56.729Z,58.46
2023-05-11T06:59:58.775Z,58.07
2023-05-11T07:05:00.728Z,58.21
2023-05-11T07:10:02.818Z,58.08
2023-05-11T07:15:05.005Z,57.69
2023-05-11T07:20:08.099Z,58.03
2023-05-11T07:25:10.199Z,57.91
2023-05-11T07:30:12.582Z,57.33
2023-05-11T07:35:17.620Z,57.38
2023-05-11T07:40:19.936Z,56.68
2023-05-11T07:45:22.423Z,56.39
2023-05-11T07:50:24.972Z,56.08
2023-05-11T07:55:30.163Z,55.83
2023-05-11T08:00:31.982Z,55.65
2023-05-11T08:05:37.535Z,55.43
2023-05-11T08:10:39.866Z,54.93
2023-05-11T08:15:41.726Z,54.69
2023-05-11T08:20:43.725Z,54.16
2023-05-11T08:25:52.794Z,53.34
2023-05-11T08:30:58.608Z,53.10
2023-05-11T08:36:00.643Z,52.65
2023-05-11T08:41:03.382Z,52.65
2023-05-11T08:46:09.256Z,52.42
2023-05-11T08:51:11.276Z,52.20
2023-05-11T08:56:13.653Z,52.21
2023-05-11T09:01:23.586Z,51.38
2023-05-11T09:06:27.230Z,50.94
2023-05-11T09:11:30.686Z,51.00
2023-05-11T09:16:37.303Z,50.66
2023-05-11T09:21:39.710Z,50.34
2023-05-11T09:26:41.594Z,49.58
2023-05-11T09:31:45.282Z,49.77
2023-05-11T09:36:54.309Z,49.01
2023-05-11T09:42:19.812Z,48.49
2023-05-11T09:47:24.750Z,49.27
2023-05-11T09:52:27.106Z,49.07
2023-05-11T09:57:31.648Z,49.06
2023-05-11T10:02:34.601Z,48.94
2023-05-11T10:07:37.507Z,48.14
2023-05-11T10:12:40.507Z,48.05
2023-05-11T10:17:46.337Z,47.36
2023-05-11T10:22:50.836Z,46.91
2023-05-11T10:27:55.095Z,46.25
2023-05-11T10:32:57.656Z,46.07
2023-05-11T10:38:01.219Z,46.07
2023-05-11T10:43:06.269Z,46.34
2023-05-11T10:48:27.132Z,45.87
2023-05-11T10:53:38.056Z,45.86
2023-05-11T10:59:09.746Z,45.22
2023-05-11T11:04:13.783Z,45.46
2023-05-11T11:09:16.583Z,45.08
2023-05-11T11:14:19.394Z,45.42
2023-05-11T11:19:30.414Z,44.88
2023-05-11T11:24:38.543Z,44.85
2023-05-11T11:29:40.865Z,45.08
2023-05-11T11:34:44.204Z,45.13
2023-05-11T11:39:50.781Z,44.90
2023-05-11T11:44:52.651Z,44.85
2023-05-11T11:49:55.522Z,45.01
2023-05-11T11:55:02.444Z,44.79
2023-05-11T12:00:11.483Z,44.55
2023-05-11T12:05:19.120Z,44.61
2023-05-11T12:10:23.272Z,45.07
2023-05-11T12:15:31.466Z,44.73
2023-05-11T12:20:33.391Z,44.85
2023-05-11T12:25:35.612Z,44.96
2023-05-11T12:31:00.606Z,44.43
2023-05-11T12:36:02.889Z,44.96
2023-05-11T12:41:06.342Z,44.43
2023-05-11T12:46:08.360Z,44.66
2023-05-11T12:51:10.592Z,44.50
2023-05-11T12:56:12.578Z,44.52
2023-05-11T13:01:14.461Z,44.75
2023-05-11T13:06:20.851Z,44.31
2023-05-11T13:11:27.093Z,44.08
2023-05-11T13:16:31.153Z,43.95
2023-05-11T13:21:33.723Z,43.81
2023-05-11T13:26:35.701Z,43.59
2023-05-11T13:31:48.279Z,43.48
2023-05-11T13:36:50.906Z,43.43
2023-05-11T13:41:55.637Z,43.34
2023-05-11T13:46:57.947Z,43.12
2023-05-11T13:52:00.661Z,42.99
2023-05-11T13:57:03.114Z,42.84
2023-05-11T14:02:05.580Z,42.41
2023-05-11T14:07:08.748Z,42.67
2023-05-11T14:12:10.697Z,42.53
2023-05-11T14:17:13.727Z,42.41
2023-05-11T14:22:15.953Z,41.69
2023-05-11T14:27:18.032Z,41.71
2023-05-11T14:32:21.318Z,41.05
2023-05-11T14:37:23.328Z,40.31
2023-05-11T14:42:25.782Z,40.22
2023-05-11T14:47:27.845Z,40.19
2023-05-11T14:52:31.252Z,39.82
2023-05-11T14:57:33.397Z,39.65
2023-05-11T15:02:35.368Z,39.76
2023-05-11T15:07:38.787Z,39.60
2023-05-11T15:12:40.706Z,39.23
2023-05-11T15:17:42.571Z,39.50
2023-05-11T15:22:45.035Z,39.23
2023-05-11T15:27:47.527Z,38.81
2023-05-11T15:32:49.487Z,38.89
2023-05-11T15:37:51.545Z,38.92
2023-05-11T15:42:53.773Z,38.87
2023-05-11T15:47:55.691Z,38.74
2023-05-11T15:52:57.508Z,38.57
2023-05-11T15:57:59.396Z,38.36
2023-05-11T16:03:05.865Z,38.32
2023-05-11T16:08:11.374Z,38.65
2023-05-11T16:13:13.447Z,38.88
2023-05-11T16:18:16.798Z,38.94
2023-05-11T16:23:18.707Z,38.93
2023-05-11T16:28:20.591Z,39.04
2023-05-11T16:33:22.584Z,39.24
2023-05-11T16:38:24.492Z,39.09
2023-05-11T16:43:26.441Z,39.45
2023-05-11T16:48:28.500Z,38.91
2023-05-11T16:53:30.431Z,38.59
2023-05-11T16:58:32.575Z,38.30
2023-05-11T17:03:35.161Z,38.06
2023-05-11T17:08:39.143Z,38.30
2023-05-11T17:13:41.190Z,38.06
2023-05-11T17:18:43.146Z,38.10
2023-05-11T17:23:46.215Z,38.31
2023-05-11T17:28:51.506Z,38.51
2023-05-11T17:33:53.553Z,38.74
2023-05-11T17:38:55.795Z,38.57
2023-05-11T17:43:57.900Z,38.58
2023-05-11T17:49:01.421Z,38.65
2023-05-11T17:54:03.589Z,38.82
2023-05-11T17:59:05.942Z,39.25
2023-05-11T18:04:08.081Z,39.25
2023-05-11T18:09:12.504Z,38.96
2023-05-11T18:14:14.413Z,39.40
2023-05-11T18:19:18.190Z,39.38
2023-05-11T18:24:20.348Z,39.34
2023-05-11T18:29:23.176Z,39.54
2023-05-11T18:34:25.071Z,39.47
2023-05-11T18:39:27.086Z,39.72
2023-05-11T18:44:29.372Z,39.90
2023-05-11T18:49:31.418Z,39.82
2023-05-11T18:54:34.225Z,40.30
2023-05-11T18:59:36.077Z,40.07
2023-05-11T19:04:38.013Z,40.07
2023-05-11T19:09:39.898Z,40.33
2023-05-11T19:14:41.862Z,40.25
2023-05-11T19:19:43.669Z,40.44
2023-05-11T19:24:45.499Z,40.73
2023-05-11T19:29:51.178Z,40.60
2023-05-11T19:34:54.115Z,41.15
2023-05-11T19:40:11.165Z,41.44
2023-05-11T19:45:18.107Z,41.87
2023-05-11T19:50:22.572Z,41.88
2023-05-11T19:55:26.172Z,42.48
2023-05-11T20:00:28.228Z,43.21
2023-05-11T20:05:31.134Z,43.31
2023-05-11T20:10:33.577Z,43.85
2023-05-11T20:15:35.590Z,43.78
2023-05-11T20:20:37.444Z,44.46
2023-05-11T20:25:43.723Z,44.94
2023-05-11T20:30:45.680Z,44.71
2023-05-11T20:35:47.693Z,44.91
2023-05-11T20:40:49.623Z,45.18
2023-05-11T20:45:52.199Z,45.56
2023-05-11T20:50:55.803Z,45.32
2023-05-11T20:55:57.788Z,45.35
2023-05-11T21:01:02.647Z,46.06
2023-05-11T21:06:05.849Z,45.99
2023-05-11T21:11:07.702Z,46.07
2023-05-11T21:16:09.673Z,46.12
2023-05-11T21:21:11.858Z,45.96
2023-05-11T21:26:15.213Z,46.24
2023-05-11T21:31:17.588Z,46.62
2023-05-11T21:36:19.684Z,46.96
2023-05-11T21:41:21.484Z,47.00
2023-05-11T21:46:23.770Z,47.21
2023-05-11T21:51:25.588Z,47.32
2023-05-11T21:56:27.382Z,47.50
2023-05-11T22:01:29.222Z,47.45
2023-05-11T22:06:31.594Z,47.58
2023-05-11T22:11:37.890Z,47.67
2023-05-11T22:16:39.847Z,47.74
2023-05-11T22:21:41.764Z,47.39
2023-05-11T22:26:44.706Z,47.35
2023-05-11T22:31:46.700Z,47.56
2023-05-11T22:36:48.594Z,47.29
2023-05-11T22:41:50.673Z,47.65
2023-05-11T22:46:52.736Z,47.67
2023-05-11T22:51:58.742Z,48.24
2023-05-11T22:57:03.722Z,48.28
2023-05-11T23:02:05.750Z,48.10
2023-05-11T23:07:07.970Z,48.29
2023-05-11T23:12:10.847Z,48.41
2023-05-11T23:17:13.379Z,48.28
2023-05-11T23:22:15.248Z,48.43
2023-05-11T23:27:17.314Z,48.19
2023-05-11T23:32:19.126Z,48.23
2023-05-11T23:37:22.329Z,48.32
2023-05-11T23:42:24.158Z,48.42
2023-05-11T23:47:27.138Z,48.64
2023-05-11T23:52:29.827Z,49.00
2023-05-11T23:57:32.245Z,48.62
